createdAt,value
2019-04-29T14:01:32.910Z,2.20
2019-04-29T14:03:56.258Z,1.90
2019-04-29T14:06:25.102Z,1.93
2019-04-29T14:08:55.230Z,1.42
2019-04-29T14:11:27.273Z,1.50
2019-04-29T14:13:55.890Z,1.25
2019-04-29T14:16:25.085Z,1.20
2019-04-29T14:18:54.346Z,1.32
2019-04-29T14:21:25.599Z,1.13
2019-04-29T14:23:54.045Z,1.00
2019-04-29T14:26:23.249Z,1.10
2019-04-29T14:28:52.470Z,0.85
2019-04-29T14:31:22.769Z,1.10
2019-04-29T14:33:55.890Z,0.85
2019-04-29T14:36:26.480Z,0.80
2019-04-29T14:39:18.952Z,1.00
2019-04-29T14:41:56.471Z,0.70
2019-04-29T14:44:31.395Z,0.97
2019-04-29T14:49:47.468Z,1.60
2019-04-29T14:52:18.322Z,1.27
2019-04-29T14:54:47.604Z,1.20
2019-04-29T14:57:16.722Z,2.15
2019-04-29T14:59:45.925Z,1.72
2019-04-29T15:02:17.389Z,1.92
2019-04-29T15:07:31.765Z,1.32
2019-04-29T15:10:13.176Z,0.90
2019-04-29T15:12:52.109Z,1.10
2019-04-29T15:15:21.801Z,0.90
2019-04-29T15:17:52.239Z,0.90
2019-04-29T15:20:31.968Z,0.72
2019-04-29T15:23:01.141Z,0.62
2019-04-29T15:25:36.646Z,0.85
2019-04-29T15:28:03.342Z,0.70
2019-04-29T15:30:36.736Z,0.62
2019-04-29T15:33:02.910Z,0.80
2019-04-29T15:35:33.595Z,0.72
2019-04-29T15:38:02.781Z,0.80
2019-04-29T15:40:32.184Z,0.50
2019-04-29T15:43:01.520Z,0.80
2019-04-29T15:45:32.817Z,0.55
2019-04-29T15:48:05.937Z,0.90
2019-04-29T15:50:44.119Z,0.55
2019-04-29T15:53:15.278Z,0.65
2019-04-29T15:55:45.824Z,0.80
2019-04-29T15:58:15.392Z,0.55
2019-04-29T16:00:44.722Z,0.70
2019-04-29T16:03:17.912Z,0.60
2019-04-29T16:06:10.843Z,0.60
2019-04-29T16:08:16.789Z,0.50
2019-04-29T16:10:46.036Z,0.47
2019-04-29T16:13:16.550Z,0.68
2019-04-29T16:15:47.152Z,0.50
2019-04-29T16:18:16.892Z,0.45
2019-04-29T16:20:53.342Z,0.45
2019-04-29T16:23:17.860Z,0.50
2019-04-29T16:25:52.229Z,0.40
2019-04-29T16:28:24.265Z,0.50
2019-04-29T16:30:50.480Z,0.50
2019-04-29T16:33:19.682Z,0.40
2019-04-29T16:35:51.637Z,0.53
2019-04-29T16:38:21.416Z,0.40
2019-04-29T16:40:57.143Z,0.30
2019-04-29T16:43:27.680Z,0.40
2019-04-29T16:46:03.039Z,0.40
2019-04-29T16:48:33.885Z,0.37
2019-04-29T16:51:06.708Z,0.40
2019-04-29T16:53:34.472Z,0.50
2019-04-29T16:56:03.761Z,0.30
2019-04-29T16:58:35.387Z,0.40
2019-04-29T17:01:08.713Z,0.40
2019-04-29T17:03:38.133Z,0.30
2019-04-29T17:06:07.862Z,0.40
2019-04-29T17:08:37.541Z,0.40
2019-04-29T17:11:11.932Z,0.33
2019-04-29T17:13:38.747Z,0.30
2019-04-29T17:16:08.218Z,0.47
2019-04-29T17:18:37.614Z,0.50
2019-04-29T17:21:08.305Z,0.37
2019-04-29T17:26:07.555Z,0.40
2019-04-29T17:28:36.851Z,0.47
2019-04-29T17:31:11.642Z,0.40
2019-04-29T17:33:37.546Z,0.30
2019-04-29T17:36:07.317Z,0.30
2019-04-29T17:38:37.758Z,0.30
2019-04-29T17:41:08.053Z,0.25
2019-04-29T17:43:38.436Z,0.28
2019-04-29T17:46:07.695Z,0.20
2019-04-29T17:48:36.882Z,0.20
2019-04-29T17:51:06.393Z,0.30
2019-04-29T17:53:35.568Z,0.30
2019-04-29T17:56:09.823Z,0.20
2019-04-29T17:58:39.327Z,0.40
2019-04-29T18:01:08.668Z,0.40
2019-04-29T18:03:41.347Z,0.40
2019-04-29T18:06:09.367Z,0.35
2019-04-29T18:08:39.601Z,0.28
2019-04-29T18:11:10.053Z,0.40
2019-04-29T18:16:17.346Z,0.33
2019-04-29T18:21:14.924Z,0.50
2019-04-29T18:23:44.690Z,0.25
2019-04-29T18:26:14.870Z,0.40
2019-04-29T18:28:45.769Z,0.60
2019-04-29T18:31:15.417Z,0.60
2019-04-29T18:33:46.054Z,0.30
2019-04-29T18:36:23.441Z,0.40
2019-04-29T18:38:50.072Z,0.40
2019-04-29T18:41:26.763Z,0.28
2019-04-29T18:43:56.403Z,0.50
2019-04-29T18:46:25.883Z,0.35
2019-04-29T18:49:02.759Z,0.40
2019-04-29T18:51:30.790Z,0.33
2019-04-29T18:54:00.882Z,0.42
2019-04-29T18:56:32.261Z,0.50
2019-04-29T18:59:00.977Z,0.40
2019-04-29T19:01:34.926Z,0.40
2019-04-29T19:04:10.139Z,0.30
2019-04-29T19:06:37.473Z,0.60
2019-04-29T19:09:17.516Z,0.50
2019-04-29T19:11:39.773Z,0.50
2019-04-29T19:14:09.294Z,0.37
2019-04-29T19:16:39.643Z,0.50
2019-04-29T19:19:09.941Z,0.37
2019-04-29T19:21:39.515Z,0.60
2019-04-29T19:24:09.080Z,0.47
2019-04-29T19:26:40.708Z,0.40
2019-04-29T19:29:10.530Z,0.40
2019-04-29T19:31:46.697Z,0.50
2019-04-29T19:34:14.774Z,0.40
2019-04-29T19:36:42.415Z,0.40
2019-04-29T19:39:11.943Z,0.50
2019-04-29T19:41:41.908Z,0.40
2019-04-29T19:44:11.363Z,0.40
2019-04-29T19:46:42.178Z,0.40
2019-04-29T19:49:13.074Z,0.50
2019-04-29T19:51:43.613Z,0.60
2019-04-29T19:54:16.940Z,0.50
2019-04-29T19:56:45.218Z,0.40
2019-04-29T19:59:17.458Z,0.55
2019-04-29T20:01:49.680Z,0.40
2019-04-29T20:06:48.478Z,0.40
2019-04-29T20:09:22.545Z,0.35
2019-04-29T20:11:50.378Z,0.42
2019-04-29T20:16:57.367Z,0.40
2019-04-29T20:24:23.571Z,0.53
2019-04-29T20:26:55.924Z,0.40
2019-04-29T20:29:27.305Z,0.40
2019-04-29T20:34:29.071Z,0.40
2019-04-29T20:36:58.562Z,0.55
2019-04-29T20:39:29.667Z,0.60
2019-04-29T20:42:01.117Z,0.60
2019-04-29T20:44:29.979Z,0.40
2019-04-29T20:47:17.078Z,0.47
2019-04-29T20:49:35.943Z,0.40
2019-04-29T20:52:02.706Z,0.60
2019-04-29T20:54:32.393Z,0.60
2019-04-29T20:57:05.365Z,0.50
2019-04-29T20:59:35.608Z,0.40
2019-04-29T21:04:45.728Z,0.50
2019-04-29T21:07:07.013Z,0.50
2019-04-29T21:12:05.855Z,0.53
2019-04-29T21:17:10.820Z,0.50
2019-04-29T21:19:37.967Z,0.37
2019-04-29T21:22:07.466Z,0.40
2019-04-29T21:24:38.073Z,0.42
2019-04-29T21:27:07.433Z,0.40
2019-04-29T21:29:37.622Z,0.53
2019-04-29T21:34:38.643Z,0.50
2019-04-29T21:37:09.950Z,0.50
2019-04-29T21:39:38.166Z,0.40
2019-04-29T21:42:08.320Z,0.60
2019-04-29T21:44:41.760Z,0.57
2019-04-29T21:47:10.718Z,0.47
2019-04-29T21:49:45.332Z,0.50
2019-04-29T21:52:15.359Z,0.80
2019-04-29T21:54:49.134Z,0.53
2019-04-29T21:57:16.956Z,0.47
2019-04-29T22:02:17.550Z,0.55
2019-04-29T22:04:48.448Z,0.50
2019-04-29T22:07:17.527Z,3.27
2019-04-29T22:09:50.225Z,3.40
2019-04-29T22:12:20.248Z,3.12
2019-04-29T22:14:53.884Z,3.60
2019-04-29T22:17:21.495Z,3.35
2019-04-29T22:19:51.168Z,3.45
2019-04-29T22:22:21.932Z,4.10
2019-04-29T22:24:51.398Z,4.12
2019-04-29T22:27:20.900Z,3.90
2019-04-29T22:29:50.210Z,5.03
2019-04-29T22:32:19.595Z,4.65
2019-04-29T22:34:53.521Z,4.97
2019-04-29T22:37:20.831Z,5.97
2019-04-29T22:39:50.919Z,6.42
2019-04-29T22:42:23.595Z,5.78
2019-04-29T22:44:52.647Z,6.00
